Time;durP1;ratioP1;P1;durP2;ratioP2;P2;SDS_P1;SDS_P2;PMS_P1;PMS_P2;Temp;Humidity;BMP_temperature;BMP_pressure;BME280_temperature;BME280_humidity;BME280_pressure;Samples;Min_cycle;Max_cycle;Signal;HPM_P1;HPM_P2
2022/04/22 00:02:17;;;;;;;16.88;8.50;;;;;;;;;;4977724;28;20018;-70
2022/04/22 00:04:42;;;;;;;16.08;7.85;;;;;;;;;;4979362;28;20022;-69
2022/04/22 00:07:07;;;;;;;18.10;9.15;;;;;;;;;;4976525;28;20066;-70
2022/04/22 00:09:32;;;;;;;13.40;9.00;;;;;;;;;;4981301;28;20034;-70
2022/04/22 00:11:58;;;;;;;18.42;8.90;;;;;;;;;;4983635;28;20662;-71
2022/04/22 00:14:23;;;;;;;14.75;9.52;;;;;;;;;;4984071;28;20034;-71
2022/04/22 00:16:48;;;;;;;20.17;9.50;;;;;;;;;;4986658;28;20152;-71
2022/04/22 00:19:13;;;;;;;18.40;9.10;;;;;;;;;;4981005;28;20466;-69
2022/04/22 00:21:41;;;;;;;19.17;9.23;;;;;;;;;;4980338;28;20271;-69
2022/04/22 00:24:07;;;;;;;23.58;9.85;;;;;;;;;;4980673;28;20256;-70
2022/04/22 00:26:32;;;;;;;13.80;8.67;;;;;;;;;;4979031;28;20027;-69
2022/04/22 00:28:57;;;;;;;18.77;9.50;;;;;;;;;;4981231;28;20633;-69
2022/04/22 00:31:22;;;;;;;16.27;10.43;;;;;;;;;;4983033;28;20272;-70
2022/04/22 00:33:47;;;;;;;14.88;9.23;;;;;;;;;;4979413;28;20065;-69
2022/04/22 00:36:12;;;;;;;12.55;7.90;;;;;;;;;;4982322;28;20046;-69
2022/04/22 00:38:38;;;;;;;18.02;9.25;;;;;;;;;;4979248;28;20049;-69
2022/04/22 00:41:03;;;;;;;16.10;9.13;;;;;;;;;;4980345;28;20027;-69
2022/04/22 00:43:28;;;;;;;17.67;10.30;;;;;;;;;;4985036;28;20108;-69
2022/04/22 00:45:53;;;;;;;16.38;9.05;;;;;;;;;;4975428;28;20272;-69
2022/04/22 00:48:20;;;;;;;21.83;10.23;;;;;;;;;;4976009;28;20276;-70
2022/04/22 00:50:45;;;;;;;15.27;9.15;;;;;;;;;;4976745;28;20072;-70
2022/04/22 00:53:11;;;;;;;23.00;11.18;;;;;;;;;;4978688;28;20030;-70
2022/04/22 00:55:37;;;;;;;19.58;9.95;;;;;;;;;;4979789;28;20407;-70
2022/04/22 00:58:03;;;;;;;21.40;10.85;;;;;;;;;;4977992;28;20475;-68
2022/04/22 01:00:28;;;;;;;20.20;11.70;;;;;;;;;;4980945;28;20723;-69
2022/04/22 01:02:54;;;;;;;18.35;9.55;;;;;;;;;;4977836;28;20026;-69
2022/04/22 01:10:47;;;;;;;21.83;11.20;;;;;;;;;;4975637;28;20037;-68
2022/04/22 01:13:12;;;;;;;17.13;10.63;;;;;;;;;;4976295;28;20027;-70
2022/04/22 01:15:37;;;;;;;21.30;11.45;;;;;;;;;;4980766;28;20837;-70
2022/04/22 01:18:03;;;;;;;17.60;11.07;;;;;;;;;;4983137;28;20037;-69
2022/04/22 01:20:29;;;;;;;23.38;11.90;;;;;;;;;;4978420;28;20525;-69
2022/04/22 01:22:54;;;;;;;23.30;11.23;;;;;;;;;;4977845;28;20076;-69
2022/04/22 01:25:19;;;;;;;20.15;10.55;;;;;;;;;;4978802;28;20261;-69
2022/04/22 01:27:48;;;;;;;25.07;11.80;;;;;;;;;;4976029;28;20299;-69
2022/04/22 01:30:14;;;;;;;20.90;12.02;;;;;;;;;;4981751;28;20654;-69
2022/04/22 01:32:39;;;;;;;24.15;12.50;;;;;;;;;;4977894;28;20023;-69
2022/04/22 01:35:04;;;;;;;26.55;12.00;;;;;;;;;;4974357;28;20073;-69
2022/04/22 01:37:31;;;;;;;23.85;12.48;;;;;;;;;;4978048;28;20465;-68
2022/04/22 01:39:56;;;;;;;21.30;12.18;;;;;;;;;;4976730;28;20019;-69
2022/04/22 01:42:22;;;;;;;21.73;12.07;;;;;;;;;;4980261;28;20392;-69
2022/04/22 01:44:47;;;;;;;24.33;11.10;;;;;;;;;;4972654;28;20311;-69
2022/04/22 01:47:12;;;;;;;22.35;11.98;;;;;;;;;;4973978;28;20602;-69
2022/04/22 01:49:37;;;;;;;24.65;11.77;;;;;;;;;;4985873;28;20380;-69
2022/04/22 01:52:02;;;;;;;22.80;12.05;;;;;;;;;;4978174;28;20495;-69
2022/04/22 01:54:28;;;;;;;22.33;12.38;;;;;;;;;;4979066;28;20552;-69
2022/04/22 01:56:53;;;;;;;24.17;12.90;;;;;;;;;;4974860;28;20022;-68
2022/04/22 01:59:18;;;;;;;25.63;12.02;;;;;;;;;;4980485;28;20040;-68
2022/04/22 02:01:43;;;;;;;21.70;12.43;;;;;;;;;;4978834;28;20607;-68
2022/04/22 02:04:09;;;;;;;26.27;12.77;;;;;;;;;;4981652;28;20307;-67
2022/04/22 02:06:34;;;;;;;26.17;13.18;;;;;;;;;;4976604;28;20030;-69
2022/04/22 02:08:59;;;;;;;29.67;13.50;;;;;;;;;;4979515;28;20068;-69
2022/04/22 02:11:24;;;;;;;26.25;12.77;;;;;;;;;;4980573;28;20543;-69
2022/04/22 02:13:49;;;;;;;25.48;12.10;;;;;;;;;;4981187;28;20719;-69
2022/04/22 02:16:15;;;;;;;24.77;12.45;;;;;;;;;;4980922;28;20318;-69
2022/04/22 02:18:41;;;;;;;30.00;12.65;;;;;;;;;;4974602;28;20579;-69
2022/04/22 02:21:07;;;;;;;26.40;13.93;;;;;;;;;;4978322;28;20038;-68
2022/04/22 02:23:32;;;;;;;25.15;12.50;;;;;;;;;;4978382;28;20507;-69
2022/04/22 02:25:58;;;;;;;28.92;13.80;;;;;;;;;;4975178;28;20036;-68
2022/04/22 02:28:32;;;;;;;28.98;12.70;;;;;;;;;;4979795;28;20084;-69
2022/04/22 02:30:57;;;;;;;;;;;;;;;;;;4979480;28;20100;-69
2022/04/22 02:33:22;;;;;;;30.95;15.77;;;;;;;;;;4977785;28;19921;-69
2022/04/22 02:35:47;;;;;;;28.77;13.55;;;;;;;;;;4977232;28;20034;-69
2022/04/22 02:38:13;;;;;;;25.83;13.02;;;;;;;;;;4976381;28;20034;-69
2022/04/22 02:46:05;;;;;;;30.15;14.05;;;;;;;;;;4975256;28;20610;-68
2022/04/22 02:48:31;;;;;;;28.85;13.07;;;;;;;;;;4974006;28;20039;-68
2022/04/22 02:50:56;;;;;;;27.37;13.47;;;;;;;;;;4974791;28;20326;-68
2022/04/22 02:53:22;;;;;;;31.33;13.43;;;;;;;;;;4981166;28;20287;-68
2022/04/22 02:55:48;;;;;;;32.55;13.65;;;;;;;;;;4974353;28;20022;-68
2022/04/22 02:58:14;;;;;;;33.20;14.32;;;;;;;;;;4983801;28;20026;-68
2022/04/22 03:00:39;;;;;;;28.13;13.55;;;;;;;;;;4975250;28;20045;-68
2022/04/22 03:03:04;;;;;;;28.30;13.05;;;;;;;;;;4979534;28;20026;-69
2022/04/22 03:05:29;;;;;;;29.67;13.73;;;;;;;;;;4973610;28;20512;-69
2022/04/22 03:07:54;;;;;;;29.40;12.83;;;;;;;;;;4974279;28;20057;-69
2022/04/22 03:10:19;;;;;;;26.52;13.95;;;;;;;;;;4977223;28;21836;-69
2022/04/22 03:12:44;;;;;;;32.80;14.55;;;;;;;;;;4978286;28;20303;-69
2022/04/22 03:15:10;;;;;;;30.80;14.93;;;;;;;;;;4975307;28;20037;-68
2022/04/22 03:17:35;;;;;;;36.80;14.13;;;;;;;;;;4974127;28;20283;-69
2022/04/22 03:20:00;;;;;;;32.55;15.50;;;;;;;;;;4979352;28;20035;-68
2022/04/22 03:22:26;;;;;;;36.92;15.80;;;;;;;;;;4976218;28;20465;-68
2022/04/22 03:24:51;;;;;;;34.25;15.50;;;;;;;;;;4979229;28;20119;-69
2022/04/22 03:27:17;;;;;;;34.00;15.52;;;;;;;;;;4976684;28;20031;-69
2022/04/22 03:29:42;;;;;;;33.30;14.77;;;;;;;;;;4980262;28;20767;-68
2022/04/22 03:32:10;;;;;;;35.63;15.23;;;;;;;;;;4981299;28;20438;-68
2022/04/22 03:34:36;;;;;;;32.13;13.70;;;;;;;;;;4973561;28;20050;-68
2022/04/22 03:37:01;;;;;;;29.27;14.38;;;;;;;;;;4980754;28;20117;-68
2022/04/22 03:39:26;;;;;;;34.00;14.50;;;;;;;;;;4988009;28;20022;-68
2022/04/22 03:41:51;;;;;;;38.60;15.20;;;;;;;;;;4978602;28;20053;-68
2022/04/22 03:44:16;;;;;;;32.92;14.68;;;;;;;;;;4978427;28;20113;-69
2022/04/22 03:46:41;;;;;;;36.83;16.02;;;;;;;;;;4980053;28;20160;-69
2022/04/22 03:49:09;;;;;;;38.35;15.07;;;;;;;;;;4977486;28;20073;-69
2022/04/22 03:51:35;;;;;;;34.40;15.85;;;;;;;;;;4980782;28;20469;-68
2022/04/22 03:54:00;;;;;;;32.10;15.32;;;;;;;;;;4979341;28;21554;-69
2022/04/22 03:59:09;;;;;;;31.30;14.43;;;;;;;;;;4977964;28;20045;-69
2022/04/22 04:01:34;;;;;;;40.78;15.10;;;;;;;;;;4986268;28;20038;-69
2022/04/22 04:04:01;;;;;;;35.63;14.80;;;;;;;;;;4978969;28;20470;-68
2022/04/22 04:06:26;;;;;;;42.65;16.52;;;;;;;;;;4980285;28;20364;-68
2022/04/22 04:17:06;;;;;;;35.63;15.98;;;;;;;;;;4975309;28;20113;-68
2022/04/22 04:24:59;;;;;;;41.30;18.40;;;;;;;;;;4975125;28;20069;-70
2022/04/22 04:27:24;;;;;;;40.78;18.05;;;;;;;;;;4973996;28;20058;-68
2022/04/22 04:29:50;;;;;;;40.05;16.30;;;;;;;;;;4978768;28;20338;-68
2022/04/22 04:32:17;;;;;;;39.22;17.75;;;;;;;;;;4977323;28;20033;-68
2022/04/22 04:34:43;;;;;;;43.13;18.98;;;;;;;;;;4976685;28;20042;-68
2022/04/22 04:37:09;;;;;;;40.08;17.25;;;;;;;;;;4977187;28;20062;-69
2022/04/22 04:39:34;;;;;;;45.30;19.90;;;;;;;;;;4977128;28;20022;-68
2022/04/22 04:41:59;;;;;;;47.38;21.25;;;;;;;;;;4977857;28;20156;-69
2022/04/22 04:44:25;;;;;;;54.88;21.85;;;;;;;;;;4974155;28;20056;-68
2022/04/22 04:46:50;;;;;;;46.75;20.25;;;;;;;;;;4974564;28;20613;-68
2022/04/22 04:49:15;;;;;;;50.80;20.00;;;;;;;;;;4980568;28;20025;-68
2022/04/22 04:51:40;;;;;;;47.13;18.90;;;;;;;;;;4979848;28;20271;-68
2022/04/22 04:54:05;;;;;;;57.42;23.90;;;;;;;;;;4983357;28;20030;-69
2022/04/22 04:56:31;;;;;;;55.90;21.55;;;;;;;;;;4978457;28;20034;-68
2022/04/22 04:58:56;;;;;;;50.00;19.52;;;;;;;;;;4979198;28;20276;-69
2022/04/22 05:01:21;;;;;;;46.83;19.33;;;;;;;;;;4977931;28;20018;-68
2022/04/22 05:03:46;;;;;;;56.00;21.92;;;;;;;;;;4978897;28;20034;-69
2022/04/22 05:06:12;;;;;;;54.38;20.98;;;;;;;;;;4979941;28;20034;-69
2022/04/22 05:08:37;;;;;;;57.90;22.65;;;;;;;;;;4979911;28;20030;-69
2022/04/22 05:11:03;;;;;;;52.40;21.75;;;;;;;;;;4984521;28;20034;-68
2022/04/22 05:13:28;;;;;;;55.57;22.00;;;;;;;;;;4982692;28;20041;-68
2022/04/22 05:15:55;;;;;;;59.20;22.83;;;;;;;;;;4978190;28;20355;-69
2022/04/22 05:18:21;;;;;;;55.47;22.20;;;;;;;;;;4980179;28;20271;-68
2022/04/22 05:20:47;;;;;;;55.83;22.85;;;;;;;;;;4982362;28;20049;-68
2022/04/22 05:23:12;;;;;;;63.25;24.00;;;;;;;;;;4979391;28;20114;-68
2022/04/22 05:25:37;;;;;;;57.78;23.23;;;;;;;;;;4982497;28;20027;-68
2022/04/22 05:28:04;;;;;;;51.57;22.93;;;;;;;;;;4976934;28;20041;-67
2022/04/22 05:33:13;;;;;;;66.65;23.85;;;;;;;;;;4980871;28;20089;-67
2022/04/22 05:35:39;;;;;;;56.60;22.90;;;;;;;;;;4976828;28;20164;-66
2022/04/22 05:38:05;;;;;;;58.65;23.05;;;;;;;;;;4979088;28;20104;-68
2022/04/22 05:40:31;;;;;;;71.18;23.77;;;;;;;;;;4976770;28;20377;-68
2022/04/22 05:42:56;;;;;;;58.67;23.65;;;;;;;;;;4977902;28;20042;-68
2022/04/22 05:45:22;;;;;;;62.65;23.98;;;;;;;;;;4975639;28;20027;-67
2022/04/22 05:47:48;;;;;;;67.38;24.45;;;;;;;;;;4978011;28;20517;-68
2022/04/22 05:50:14;;;;;;;54.38;21.98;;;;;;;;;;4982665;28;20066;-68
2022/04/22 05:52:40;;;;;;;59.08;22.92;;;;;;;;;;4976002;28;20029;-68
2022/04/22 05:55:06;;;;;;;62.17;24.20;;;;;;;;;;4975164;28;20035;-67
2022/04/22 05:57:32;;;;;;;62.22;25.67;;;;;;;;;;4974344;28;20146;-68
2022/04/22 05:59:58;;;;;;;57.92;23.63;;;;;;;;;;4974849;28;20077;-67
2022/04/22 06:02:24;;;;;;;62.22;23.38;;;;;;;;;;4976197;28;20026;-68
2022/04/22 06:04:49;;;;;;;55.63;23.13;;;;;;;;;;4979013;28;20069;-67
2022/04/22 06:07:14;;;;;;;57.70;24.48;;;;;;;;;;4987508;28;20367;-67
2022/04/22 06:12:23;;;;;;;56.10;22.23;;;;;;;;;;4974526;28;20383;-67
2022/04/22 06:14:48;;;;;;;56.53;21.87;;;;;;;;;;4972696;28;20452;-68
2022/04/22 06:17:14;;;;;;;52.85;22.60;;;;;;;;;;4974958;28;20284;-67
2022/04/22 06:19:39;;;;;;;55.25;22.20;;;;;;;;;;4974472;28;20036;-67
2022/04/22 06:22:04;;;;;;;62.78;25.20;;;;;;;;;;4975387;28;20511;-67
2022/04/22 06:24:30;;;;;;;59.15;25.00;;;;;;;;;;4974717;28;20023;-68
2022/04/22 06:26:55;;;;;;;55.50;24.40;;;;;;;;;;4974043;28;20041;-67
2022/04/22 06:29:21;;;;;;;57.45;24.45;;;;;;;;;;4972515;28;20061;-67
2022/04/22 06:31:46;;;;;;;61.35;23.35;;;;;;;;;;4975471;28;20047;-68
2022/04/22 06:34:11;;;;;;;59.13;24.70;;;;;;;;;;4973872;28;20208;-68
2022/04/22 06:36:36;;;;;;;60.20;24.42;;;;;;;;;;4972839;28;20034;-67
2022/04/22 06:39:02;;;;;;;55.08;22.08;;;;;;;;;;4976361;28;20038;-67
2022/04/22 06:46:55;;;;;;;65.57;27.40;;;;;;;;;;4977108;28;19983;-69
2022/04/22 06:49:21;;;;;;;57.70;21.90;;;;;;;;;;4972852;28;20522;-67
2022/04/22 06:51:46;;;;;;;57.20;23.33;;;;;;;;;;4976268;28;20030;-66
2022/04/22 06:54:11;;;;;;;57.03;26.67;;;;;;;;;;4977635;28;20065;-68
2022/04/22 06:56:39;;;;;;;65.10;29.15;;;;;;;;;;4975711;28;20037;-67
2022/04/22 06:59:04;;;;;;;54.42;24.02;;;;;;;;;;4971841;28;20023;-67
2022/04/22 07:01:30;;;;;;;50.63;21.45;;;;;;;;;;4974473;28;20451;-67
2022/04/22 07:03:56;;;;;;;47.63;19.42;;;;;;;;;;4976034;28;20030;-67
2022/04/22 07:06:21;;;;;;;47.05;23.23;;;;;;;;;;4974305;28;20448;-67
2022/04/22 07:08:46;;;;;;;54.40;23.77;;;;;;;;;;4976364;28;20049;-67
2022/04/22 07:11:16;;;;;;;53.50;24.52;;;;;;;;;;4971733;28;20085;-69
2022/04/22 07:13:43;;;;;;;43.45;20.30;;;;;;;;;;4972735;28;20381;-68
2022/04/22 07:16:10;;;;;;;51.83;23.42;;;;;;;;;;4974660;28;20034;-68
2022/04/22 07:18:35;;;;;;;50.25;22.77;;;;;;;;;;4976289;28;20018;-68
2022/04/22 07:21:00;;;;;;;50.05;22.90;;;;;;;;;;4973487;28;20045;-67
2022/04/22 07:23:25;;;;;;;55.75;22.52;;;;;;;;;;4974741;28;20026;-67
2022/04/22 07:25:51;;;;;;;53.40;23.25;;;;;;;;;;4976727;28;20082;-68
2022/04/22 07:28:16;;;;;;;48.00;20.60;;;;;;;;;;4975121;28;20039;-67
2022/04/22 07:30:46;;;;;;;59.95;27.02;;;;;;;;;;4976964;28;20054;-68
2022/04/22 07:33:11;;;;;;;53.35;22.13;;;;;;;;;;4980469;28;20053;-67
2022/04/22 07:35:36;;;;;;;50.15;22.80;;;;;;;;;;4974641;28;20030;-68
2022/04/22 07:38:02;;;;;;;51.70;24.88;;;;;;;;;;4977729;28;20113;-67
2022/04/22 07:40:27;;;;;;;53.22;23.15;;;;;;;;;;4976144;28;20026;-70
2022/04/22 07:48:25;;;;;;;52.80;22.65;;;;;;;;;;4971931;28;20105;-69
2022/04/22 07:50:50;;;;;;;55.78;22.50;;;;;;;;;;4970780;28;20033;-67
2022/04/22 07:53:16;;;;;;;51.83;19.52;;;;;;;;;;4970079;28;20023;-67
2022/04/22 07:55:42;;;;;;;57.55;24.70;;;;;;;;;;4975073;28;20019;-68
2022/04/22 07:58:09;;;;;;;54.78;23.65;;;;;;;;;;4972448;28;20037;-68
2022/04/22 08:00:34;;;;;;;61.88;24.60;;;;;;;;;;4973376;28;20337;-68
2022/04/22 08:02:59;;;;;;;57.13;24.38;;;;;;;;;;4973558;28;20442;-69
2022/04/22 08:05:25;;;;;;;55.17;23.75;;;;;;;;;;4975886;28;20053;-68
2022/04/22 08:07:50;;;;;;;54.20;22.75;;;;;;;;;;4973547;28;20034;-68
2022/04/22 08:10:15;;;;;;;53.20;24.63;;;;;;;;;;4973181;28;20041;-68
2022/04/22 08:12:41;;;;;;;56.00;23.20;;;;;;;;;;4976786;28;20038;-67
2022/04/22 08:15:07;;;;;;;51.70;24.05;;;;;;;;;;4977174;28;20027;-68
2022/04/22 08:17:37;;;;;;;58.13;25.23;;;;;;;;;;4987505;28;20065;-68
2022/04/22 08:20:03;;;;;;;49.88;21.60;;;;;;;;;;4985791;28;20073;-69
2022/04/22 08:22:29;;;;;;;48.20;22.45;;;;;;;;;;4985529;28;20029;-69
2022/04/22 08:24:55;;;;;;;48.15;23.88;;;;;;;;;;4981340;28;20026;-69
2022/04/22 08:27:20;;;;;;;46.72;22.65;;;;;;;;;;4987049;28;20966;-69
2022/04/22 08:29:45;;;;;;;50.92;24.75;;;;;;;;;;4982595;28;20453;-69
2022/04/22 08:32:10;;;;;;;48.57;23.77;;;;;;;;;;4988462;28;20092;-70
2022/04/22 08:34:36;;;;;;;50.23;26.80;;;;;;;;;;4987401;28;20727;-68
2022/04/22 08:37:01;;;;;;;51.03;24.08;;;;;;;;;;4987567;28;20292;-68
2022/04/22 08:39:27;;;;;;;45.13;25.08;;;;;;;;;;4988950;28;20029;-69
2022/04/22 08:41:52;;;;;;;49.65;21.63;;;;;;;;;;4989342;28;20038;-69
2022/04/22 08:44:19;;;;;;;46.60;22.33;;;;;;;;;;4982708;28;20033;-70
2022/04/22 08:52:15;;;;;;;42.13;21.10;;;;;;;;;;4987039;28;20097;-69
2022/04/22 08:54:43;;;;;;;43.38;21.80;;;;;;;;;;4985812;28;20050;-70
2022/04/22 08:57:09;;;;;;;38.72;18.48;;;;;;;;;;4986707;28;20040;-70
2022/04/22 08:59:34;;;;;;;43.97;21.48;;;;;;;;;;4990081;28;20026;-68
2022/04/22 09:01:59;;;;;;;37.40;18.08;;;;;;;;;;4988724;28;20132;-69
2022/04/22 09:04:26;;;;;;;42.65;20.55;;;;;;;;;;4985544;28;20465;-69
2022/04/22 09:06:52;;;;;;;38.85;21.05;;;;;;;;;;4987582;28;20018;-69
2022/04/22 09:09:17;;;;;;;39.25;20.27;;;;;;;;;;4988451;28;20081;-69
2022/04/22 09:11:42;;;;;;;32.63;18.30;;;;;;;;;;4984130;28;20046;-71
2022/04/22 09:14:08;;;;;;;38.42;21.20;;;;;;;;;;4988758;28;20065;-69
2022/04/22 09:16:33;;;;;;;31.17;17.50;;;;;;;;;;4985591;28;20034;-70
2022/04/22 09:19:00;;;;;;;39.35;18.70;;;;;;;;;;4985944;28;20488;-72
2022/04/22 09:21:25;;;;;;;32.55;17.90;;;;;;;;;;4987276;28;20532;-70
2022/04/22 09:23:50;;;;;;;30.80;16.13;;;;;;;;;;4986415;28;20181;-69
2022/04/22 09:26:22;;;;;;;35.15;20.75;;;;;;;;;;4986469;28;20018;-71
2022/04/22 09:29:00;;;;;;;32.22;17.52;;;;;;;;;;4984189;28;20260;-70
2022/04/22 09:31:27;;;;;;;38.30;17.90;;;;;;;;;;4987001;28;20372;-71
2022/04/22 09:33:53;;;;;;;33.75;16.67;;;;;;;;;;4983361;28;20075;-70
2022/04/22 09:44:52;;;;;;;30.92;17.63;;;;;;;;;;4979850;28;20511;-70
2022/04/22 09:47:18;;;;;;;33.85;20.58;;;;;;;;;;4985014;28;20109;-70
2022/04/22 09:49:43;;;;;;;37.38;17.88;;;;;;;;;;4986560;28;20515;-71
2022/04/22 09:52:08;;;;;;;39.03;20.23;;;;;;;;;;4984073;28;20466;-71
2022/04/22 09:54:33;;;;;;;32.17;18.53;;;;;;;;;;4986170;28;20477;-71
2022/04/22 09:57:00;;;;;;;32.00;17.90;;;;;;;;;;4981741;28;20335;-71
2022/04/22 09:59:28;;;;;;;35.60;18.00;;;;;;;;;;4980307;28;20433;-71
2022/04/22 10:01:54;;;;;;;28.70;17.00;;;;;;;;;;4976995;28;20037;-71
2022/04/22 10:04:20;;;;;;;32.88;17.88;;;;;;;;;;4984927;28;20023;-70
2022/04/22 10:06:46;;;;;;;34.38;20.23;;;;;;;;;;4987167;28;20583;-71
2022/04/22 10:09:11;;;;;;;34.85;16.52;;;;;;;;;;4986293;28;20114;-69
2022/04/22 10:11:37;;;;;;;33.75;18.17;;;;;;;;;;4988645;28;20029;-69
2022/04/22 10:14:05;;;;;;;32.40;17.33;;;;;;;;;;4988577;28;20068;-69
2022/04/22 10:16:30;;;;;;;31.33;16.70;;;;;;;;;;4986439;28;20495;-69
2022/04/22 10:18:56;;;;;;;37.40;17.75;;;;;;;;;;4987837;28;20034;-69
2022/04/22 10:21:21;;;;;;;28.20;17.40;;;;;;;;;;4988412;28;20033;-71
2022/04/22 10:23:48;;;;;;;33.15;19.45;;;;;;;;;;4983639;28;20466;-70
2022/04/22 10:26:14;;;;;;;32.40;16.42;;;;;;;;;;4982937;28;20038;-70
2022/04/22 10:28:42;;;;;;;38.27;19.00;;;;;;;;;;4980673;28;20026;-70
2022/04/22 10:31:07;;;;;;;29.73;17.35;;;;;;;;;;4982627;28;20256;-70
2022/04/22 10:33:42;;;;;;;37.10;19.70;;;;;;;;;;4987693;28;20028;-69
2022/04/22 10:36:10;;;;;;;36.58;15.55;;;;;;;;;;4984315;28;20386;-68
2022/04/22 10:38:43;;;;;;;30.90;18.23;;;;;;;;;;4984841;28;20023;-70
2022/04/22 10:41:21;;;;;;;40.42;17.02;;;;;;;;;;4987492;28;20485;-70
2022/04/22 10:47:13;;;;;;;28.85;15.80;;;;;;;;;;4987169;28;20054;-70
2022/04/22 10:49:19;;;;;;;31.02;17.30;;;;;;;;;;4987201;28;20053;-70
2022/04/22 10:52:09;;;;;;;35.67;16.50;;;;;;;;;;4983654;28;20042;-70
2022/04/22 10:54:53;;;;;;;29.20;17.58;;;;;;;;;;4990244;28;20026;-70
2022/04/22 10:57:21;;;;;;;30.50;15.93;;;;;;;;;;4985327;28;20029;-70
2022/04/22 10:59:47;;;;;;;30.25;16.45;;;;;;;;;;4983832;28;20118;-69
2022/04/22 11:02:31;;;;;;;31.58;15.32;;;;;;;;;;4985935;28;20014;-71
2022/04/22 11:05:15;;;;;;;26.10;15.82;;;;;;;;;;4981093;28;20026;-68
2022/04/22 11:07:56;;;;;;;29.13;15.18;;;;;;;;;;4982248;28;20037;-70
2022/04/22 11:10:25;;;;;;;30.40;16.33;;;;;;;;;;4973328;28;20038;-70
2022/04/22 11:12:51;;;;;;;33.05;15.80;;;;;;;;;;4987671;28;20359;-70
2022/04/22 11:15:35;;;;;;;23.67;13.27;;;;;;;;;;4978373;28;20022;-70
2022/04/22 11:18:01;;;;;;;28.63;15.48;;;;;;;;;;4980540;28;20034;-71
2022/04/22 11:20:26;;;;;;;26.23;16.38;;;;;;;;;;4986162;28;20049;-70
2022/04/22 11:22:57;;;;;;;25.23;15.27;;;;;;;;;;4984646;28;20053;-70
2022/04/22 11:25:26;;;;;;;28.70;16.10;;;;;;;;;;4985477;28;20584;-69
2022/04/22 11:27:55;;;;;;;31.48;14.43;;;;;;;;;;4975317;28;20022;-69
2022/04/22 11:30:20;;;;;;;31.92;14.57;;;;;;;;;;4987155;28;20018;-70
2022/04/22 11:32:48;;;;;;;25.95;15.10;;;;;;;;;;4989974;28;20032;-70
2022/04/22 11:35:14;;;;;;;32.63;13.60;;;;;;;;;;4982407;28;20026;-70
2022/04/22 11:37:39;;;;;;;26.77;14.15;;;;;;;;;;4981424;28;20496;-70
2022/04/22 11:40:08;;;;;;;25.63;13.00;;;;;;;;;;4987867;28;20491;-68
2022/04/22 11:42:37;;;;;;;28.85;14.65;;;;;;;;;;4987649;28;20614;-70
2022/04/22 11:45:06;;;;;;;23.77;12.55;;;;;;;;;;4985639;28;20113;-71
2022/04/22 11:47:31;;;;;;;34.15;13.73;;;;;;;;;;4976284;28;20540;-69
2022/04/22 11:49:57;;;;;;;29.75;15.02;;;;;;;;;;4981845;28;20041;-71
2022/04/22 11:52:22;;;;;;;22.33;13.45;;;;;;;;;;4979968;28;20118;-71
2022/04/22 11:54:48;;;;;;;24.38;13.65;;;;;;;;;;4981081;28;20108;-69
2022/04/22 11:57:13;;;;;;;22.58;12.20;;;;;;;;;;4977498;28;20027;-69
2022/04/22 11:59:38;;;;;;;23.15;13.25;;;;;;;;;;4987577;28;20022;-68
2022/04/22 12:10:17;;;;;;;21.02;12.75;;;;;;;;;;4983119;28;20081;-71
2022/04/22 12:12:48;;;;;;;19.58;11.70;;;;;;;;;;4984889;28;20117;-70
2022/04/22 12:15:16;;;;;;;24.73;12.65;;;;;;;;;;4989546;28;20060;-71
2022/04/22 12:17:41;;;;;;;22.55;12.18;;;;;;;;;;4989050;28;20053;-71
2022/04/22 12:20:07;;;;;;;23.17;12.73;;;;;;;;;;4987287;28;20144;-71
2022/04/22 12:22:32;;;;;;;21.90;12.88;;;;;;;;;;4979141;28;20605;-70
2022/04/22 12:25:19;;;;;;;23.33;12.52;;;;;;;;;;4989695;28;20134;-74
2022/04/22 12:28:03;;;;;;;26.30;13.27;;;;;;;;;;4984659;28;20495;-72
2022/04/22 12:30:28;;;;;;;;;;;;;;;;;;4988567;28;20023;-72
2022/04/22 12:32:53;;;;;;;20.70;11.25;;;;;;;;;;5012937;28;19941;-72
2022/04/22 12:35:18;;;;;;;20.27;11.77;;;;;;;;;;4987520;28;20034;-72
2022/04/22 12:37:44;;;;;;;25.65;14.05;;;;;;;;;;4987848;28;20655;-72
2022/04/22 12:40:10;;;;;;;20.83;12.20;;;;;;;;;;4990554;28;20026;-72
2022/04/22 12:42:36;;;;;;;24.95;13.32;;;;;;;;;;4990454;28;20022;-75
2022/04/22 12:53:46;;;;;;;22.30;11.52;;;;;;;;;;4986705;28;20085;-71
2022/04/22 12:56:11;;;;;;;20.13;12.05;;;;;;;;;;4987286;28;20022;-72
2022/04/22 12:58:55;;;;;;;21.80;11.88;;;;;;;;;;4986892;28;20030;-70
2022/04/22 13:01:24;;;;;;;23.42;11.73;;;;;;;;;;4989586;28;20022;-72
2022/04/22 13:03:49;;;;;;;26.90;11.98;;;;;;;;;;4986891;28;20109;-72
2022/04/22 13:06:34;;;;;;;21.23;10.88;;;;;;;;;;4989455;28;20026;-71
2022/04/22 13:08:59;;;;;;;20.58;11.02;;;;;;;;;;4989937;28;20472;-72
2022/04/22 13:11:24;;;;;;;21.67;11.20;;;;;;;;;;4998515;28;20052;-71
2022/04/22 13:13:50;;;;;;;23.25;12.07;;;;;;;;;;4987753;28;20452;-71
2022/04/22 13:16:15;;;;;;;23.73;11.70;;;;;;;;;;4979764;28;20436;-71
2022/04/22 13:18:40;;;;;;;19.83;10.50;;;;;;;;;;4988120;28;20018;-72
2022/04/22 13:21:05;;;;;;;21.63;10.73;;;;;;;;;;4989843;28;20137;-71
2022/04/22 13:23:31;;;;;;;17.33;11.73;;;;;;;;;;4986662;28;20026;-71
2022/04/22 13:25:56;;;;;;;23.88;12.85;;;;;;;;;;5001277;28;20022;-71
2022/04/22 13:28:22;;;;;;;18.67;11.27;;;;;;;;;;4987003;28;20434;-72
2022/04/22 13:30:47;;;;;;;15.23;10.43;;;;;;;;;;4988739;28;20027;-72
2022/04/22 13:33:13;;;;;;;19.25;11.18;;;;;;;;;;4987070;28;20415;-72
2022/04/22 13:35:38;;;;;;;20.03;10.53;;;;;;;;;;4991495;28;20033;-71
2022/04/22 13:38:03;;;;;;;17.50;10.68;;;;;;;;;;4980606;28;20280;-72
2022/04/22 13:40:28;;;;;;;20.60;10.53;;;;;;;;;;4985842;28;20030;-74
2022/04/22 13:42:53;;;;;;;19.00;10.15;;;;;;;;;;4987860;28;20094;-71
2022/04/22 13:53:30;;;;;;;28.20;11.98;;;;;;;;;;4976112;28;20064;-75
2022/04/22 13:55:55;;;;;;;19.43;12.27;;;;;;;;;;4981588;28;20030;-74
2022/04/22 13:58:21;;;;;;;24.73;13.50;;;;;;;;;;4985213;28;20294;-73
2022/04/22 14:00:47;;;;;;;19.48;11.73;;;;;;;;;;4988688;28;20152;-74
2022/04/22 14:03:12;;;;;;;16.60;10.47;;;;;;;;;;4984864;28;20105;-74
2022/04/22 14:05:37;;;;;;;22.47;11.40;;;;;;;;;;4984602;28;20422;-73
2022/04/22 14:08:02;;;;;;;21.30;12.05;;;;;;;;;;4987770;28;20038;-72
2022/04/22 14:10:27;;;;;;;15.80;10.40;;;;;;;;;;4981741;28;20034;-77
2022/04/22 14:12:53;;;;;;;24.10;10.65;;;;;;;;;;4988010;28;20022;-74
2022/04/22 14:15:19;;;;;;;20.38;10.45;;;;;;;;;;4980359;28;20035;-72
2022/04/22 14:17:45;;;;;;;17.67;10.00;;;;;;;;;;4982923;28;20053;-71
2022/04/22 14:20:12;;;;;;;19.90;10.07;;;;;;;;;;4980520;28;20351;-76
2022/04/22 14:22:37;;;;;;;18.05;9.70;;;;;;;;;;4983967;28;20034;-69
2022/04/22 14:25:02;;;;;;;21.77;10.43;;;;;;;;;;4981618;28;20035;-74
2022/04/22 14:27:27;;;;;;;16.23;10.23;;;;;;;;;;4983439;28;20174;-71
2022/04/22 14:29:53;;;;;;;21.13;11.50;;;;;;;;;;4987249;28;20026;-70
2022/04/22 14:32:18;;;;;;;18.90;11.63;;;;;;;;;;4987633;28;20256;-71
2022/04/22 14:34:44;;;;;;;16.92;10.32;;;;;;;;;;4988418;28;20259;-74
2022/04/22 14:37:09;;;;;;;21.42;9.45;;;;;;;;;;4977208;28;20429;-72
2022/04/22 14:39:34;;;;;;;25.77;12.68;;;;;;;;;;4987766;28;20025;-72
2022/04/22 14:42:00;;;;;;;27.13;10.73;;;;;;;;;;4987561;28;20036;-72
2022/04/22 14:44:25;;;;;;;25.52;10.23;;;;;;;;;;4978748;28;20385;-71
2022/04/22 14:46:50;;;;;;;25.85;10.55;;;;;;;;;;4987208;28;20377;-71
2022/04/22 14:49:16;;;;;;;19.93;10.70;;;;;;;;;;4987998;28;20027;-73
2022/04/22 14:51:50;;;;;;;16.58;9.30;;;;;;;;;;4986669;28;20267;-72
2022/04/22 14:54:16;;;;;;;16.02;9.32;;;;;;;;;;4985724;28;20033;-73
2022/04/22 14:56:41;;;;;;;19.80;9.73;;;;;;;;;;4987443;28;20718;-71
2022/04/22 14:59:06;;;;;;;17.83;10.65;;;;;;;;;;4983327;28;20026;-72
2022/04/22 15:01:32;;;;;;;19.58;9.75;;;;;;;;;;4986835;28;20030;-72
2022/04/22 15:03:57;;;;;;;20.40;10.10;;;;;;;;;;4986373;28;20029;-72
2022/04/22 15:06:23;;;;;;;17.75;11.25;;;;;;;;;;4985379;28;20492;-71
2022/04/22 15:08:49;;;;;;;16.70;10.20;;;;;;;;;;4995526;28;20046;-73
2022/04/22 15:11:15;;;;;;;23.98;11.45;;;;;;;;;;4987195;28;20026;-71
2022/04/22 15:13:40;;;;;;;23.13;11.65;;;;;;;;;;4986381;28;20149;-72
2022/04/22 15:16:05;;;;;;;18.47;10.33;;;;;;;;;;4984957;28;20041;-73
2022/04/22 15:24:09;;;;;;;18.65;10.65;;;;;;;;;;4984324;28;20033;-72
2022/04/22 15:26:35;;;;;;;22.35;11.18;;;;;;;;;;4977256;28;20038;-74
2022/04/22 15:29:02;;;;;;;25.85;13.10;;;;;;;;;;4979514;28;20027;-75
2022/04/22 15:31:28;;;;;;;15.20;10.40;;;;;;;;;;4981970;28;20588;-75
2022/04/22 15:33:53;;;;;;;17.52;10.00;;;;;;;;;;4977209;28;20026;-73
2022/04/22 15:36:18;;;;;;;18.92;12.43;;;;;;;;;;4980760;28;20035;-74
2022/04/22 15:38:44;;;;;;;17.23;10.82;;;;;;;;;;4986223;28;20019;-74
2022/04/22 15:41:13;;;;;;;17.50;10.07;;;;;;;;;;4985493;28;20014;-73
2022/04/22 15:43:40;;;;;;;19.67;10.20;;;;;;;;;;4985923;28;20142;-74
2022/04/22 15:46:05;;;;;;;17.42;10.00;;;;;;;;;;4987201;28;20083;-74